Time;durP1;ratioP1;P1;durP2;ratioP2;P2;SDS_P1;SDS_P2;PMS_P1;PMS_P2;Temp;Humidity;BMP_temperature;BMP_pressure;BME280_temperature;BME280_humidity;BME280_pressure;Samples;Min_cycle;Max_cycle;Signal;HPM_P1;HPM_P2
2022/06/06 00:01:47;;;;;;;;;;;;;;;22.06;nan;99621.78;4961084;28;19918;-76
2022/06/06 00:04:13;;;;;;;;;;;;;;;22.08;nan;99625.09;4961503;28;19919;-75
2022/06/06 00:06:39;;;;;;;;;;;;;;;22.07;nan;99620.75;4963344;28;19925;-75
2022/06/06 00:09:05;;;;;;;;;;;;;;;22.08;nan;99616.19;4960616;28;20017;-75
2022/06/06 00:11:32;;;;;;;;;;;;;;;22.09;nan;99625.91;4964123;28;19928;-74
2022/06/06 00:13:57;;;;;;;;;;;;;;;22.08;nan;99613.50;4960468;28;19922;-74
2022/06/06 00:16:22;;;;;;;;;;;;;;;22.03;nan;99616.84;4962774;28;20401;-74
2022/06/06 00:18:48;;;;;;;;;;;;;;;22.01;nan;99616.22;4962750;28;19973;-75
2022/06/06 00:21:13;;;;;;;;;;;;;;;21.99;nan;99616.44;4961609;28;19918;-74
2022/06/06 00:23:39;;;;;;;;;;;;;;;21.98;nan;99619.34;4963107;28;20384;-74
2022/06/06 00:26:07;;;;;;;;;;;;;;;21.95;nan;99612.53;4959343;28;19919;-74
2022/06/06 00:28:33;;;;;;;;;;;;;;;21.91;nan;99618.53;4963560;28;19964;-75
2022/06/06 00:34:48;;;;;;;;;;;;;;;21.86;nan;99615.66;4960031;28;20336;-74
2022/06/06 00:36:31;;;;;;;;;;;;;;;21.76;nan;99615.28;4963252;28;20033;-75
2022/06/06 00:38:56;;;;;;;;;;;;;;;21.74;nan;99625.41;4960507;28;19925;-74
2022/06/06 00:41:21;;;;;;;;;;;;;;;21.68;nan;99624.41;4962492;28;19918;-74
2022/06/06 00:44:01;;;;;;;;;;;;;;;21.67;nan;99624.63;4961480;28;19941;-74
2022/06/06 00:46:28;;;;;;;;;;;;;;;21.64;nan;99626.69;4962850;28;20442;-75
2022/06/06 00:48:54;;;;;;;;;;;;;;;21.53;nan;99622.00;4959748;28;19922;-74
2022/06/06 00:51:19;;;;;;;;;;;;;;;21.47;nan;99630.88;4962555;28;20327;-74
2022/06/06 00:53:50;;;;;;;;;;;;;;;21.47;nan;99633.56;4966019;28;20008;-74
2022/06/06 00:56:21;;;;;;;;;;;;;;;21.45;nan;99641.00;4980337;28;19915;-74
2022/06/06 00:58:50;;;;;;;;;;;;;;;21.46;nan;99641.84;4962594;28;19930;-74
2022/06/06 01:01:15;;;;;;;;;;;;;;;21.45;nan;99632.94;4961540;28;19918;-74
2022/06/06 01:03:41;;;;;;;;;;;;;;;21.37;nan;99643.94;4963805;28;19926;-74
2022/06/06 01:06:10;;;;;;;;;;;;;;;21.17;nan;99637.78;4964286;28;19995;-75
2022/06/06 01:08:36;;;;;;;;;;;;;;;21.08;nan;99633.63;4967303;28;20401;-74
2022/06/06 01:11:02;;;;;;;;;;;;;;;21.08;nan;99628.28;4964058;28;19918;-74
2022/06/06 01:13:28;;;;;;;;;;;;;;;21.09;nan;99624.53;4967086;28;19973;-74
2022/06/06 01:16:00;;;;;;;;;;;;;;;21.11;nan;99633.19;4964704;28;20367;-75
2022/06/06 01:18:37;;;;;;;;;;;;;;;21.12;nan;99629.50;4967528;28;19989;-75
2022/06/06 01:21:14;;;;;;;;;;;;;;;21.17;nan;99627.03;4964176;28;20001;-75
2022/06/06 01:23:47;;;;;;;;;;;;;;;21.19;nan;99631.16;4965341;28;20375;-75
2022/06/06 01:26:31;;;;;;;;;;;;;;;21.19;nan;99633.03;4966616;28;20278;-74
2022/06/06 01:29:02;;;;;;;;;;;;;;;21.17;nan;99632.41;4966220;28;19929;-74
2022/06/06 01:31:32;;;;;;;;;;;;;;;21.16;nan;99630.75;4964070;28;20028;-76
2022/06/06 01:33:59;;;;;;;;;;;;;;;21.14;nan;99627.44;4966152;28;19940;-75
2022/06/06 01:36:27;;;;;;;;;;;;;;;21.06;nan;99625.78;4964054;28;20021;-74
2022/06/06 01:38:53;;;;;;;;;;;;;;;21.01;nan;99622.09;4965344;28;19922;-74
2022/06/06 01:41:45;;;;;;;;;;;;;;;21.03;nan;99625.38;4965004;28;19921;-74
2022/06/06 01:44:15;;;;;;;;;;;;;;;21.04;nan;99627.00;4967740;28;19922;-74
2022/06/06 01:46:40;;;;;;;;;;;;;;;20.97;nan;99618.19;4978296;28;19923;-73
2022/06/06 01:49:08;;;;;;;;;;;;;;;20.90;nan;99618.19;4966620;28;20295;-74
2022/06/06 01:51:33;;;;;;;;;;;;;;;20.69;nan;99613.84;4966483;28;19918;-74
2022/06/06 01:53:59;;;;;;;;;;;;;;;20.50;nan;99609.28;4963075;28;19945;-75
2022/06/06 01:56:33;;;;;;;;;;;;;;;20.33;nan;99614.22;4965751;28;19914;-74
2022/06/06 01:58:58;;;;;;;;;;;;;;;20.32;nan;99603.72;4962852;28;20291;-74
2022/06/06 02:01:24;;;;;;;;;;;;;;;20.38;nan;99605.59;4965164;28;19914;-75
2022/06/06 02:03:50;;;;;;;;;;;;;;;20.35;nan;99600.63;4960931;28;20004;-73
2022/06/06 02:06:15;;;;;;;;;;;;;;;20.26;nan;99617.91;4964229;28;19925;-74
2022/06/06 02:08:42;;;;;;;;;;;;;;;20.18;nan;99610.88;4965167;28;19996;-74
2022/06/06 02:11:08;;;;;;;;;;;;;;;20.20;nan;99618.72;4963155;28;19922;-74
2022/06/06 02:13:46;;;;;;;;;;;;;;;20.18;nan;99621.59;4965862;28;19925;-74
2022/06/06 02:16:11;;;;;;;;;;;;;;;20.24;nan;99620.78;4962866;28;19961;-74
2022/06/06 02:18:58;;;;;;;;;;;;;;;20.27;nan;99614.19;4965997;28;20021;-75
2022/06/06 02:21:24;;;;;;;;;;;;;;;20.25;nan;99617.09;4962905;28;20275;-74
2022/06/06 02:23:49;;;;;;;;;;;;;;;20.12;nan;99613.53;4963713;28;19925;-74
2022/06/06 02:26:15;;;;;;;;;;;;;;;19.99;nan;99623.19;4963756;28;19919;-75
2022/06/06 02:28:41;;;;;;;;;;;;;;;19.97;nan;99635.94;4964830;28;19921;-75
2022/06/06 02:31:06;;;;;;;;;;;;;;;19.98;nan;99626.91;4962416;28;19918;-74
2022/06/06 02:33:32;;;;;;;;;;;;;;;20.05;nan;99621.56;4965295;28;20405;-74
2022/06/06 02:36:00;;;;;;;;;;;;;;;20.06;nan;99633.09;4962262;28;19922;-74
2022/06/06 02:38:26;;;;;;;;;;;;;;;20.11;nan;99638.69;4964710;28;19926;-74
2022/06/06 02:40:52;;;;;;;;;;;;;;;20.11;nan;99646.72;4963065;28;19925;-75
2022/06/06 02:43:18;;;;;;;;;;;;;;;20.08;nan;99639.91;4963870;28;19920;-75
2022/06/06 02:45:46;;;;;;;;;;;;;;;19.92;nan;99632.22;4964447;28;20294;-74
2022/06/06 02:48:12;;;;;;;;;;;;;;;19.83;nan;99628.09;4963774;28;20318;-74
2022/06/06 02:50:38;;;;;;;;;;;;;;;19.78;nan;99619.84;4964812;28;20558;-74
2022/06/06 02:53:05;;;;;;;;;;;;;;;19.66;nan;99621.44;4961905;28;19918;-75
2022/06/06 02:55:31;;;;;;;;;;;;;;;19.55;nan;99628.19;4965121;28;20465;-74
2022/06/06 02:57:57;;;;;;;;;;;;;;;19.51;nan;99624.22;4961902;28;19950;-74
2022/06/06 03:00:26;;;;;;;;;;;;;;;19.49;nan;99631.66;4963851;28;19929;-74
2022/06/06 03:02:51;;;;;;;;;;;;;;;19.55;nan;99620.16;4962567;28;19953;-74
2022/06/06 03:05:17;;;;;;;;;;;;;;;19.59;nan;99624.06;4962457;28;19961;-73
2022/06/06 03:07:46;;;;;;;;;;;;;;;19.57;nan;99623.44;4994437;28;19925;-74
2022/06/06 03:10:33;;;;;;;;;;;;;;;19.51;nan;99624.22;4962115;28;20283;-74
2022/06/06 03:13:16;;;;;;;;;;;;;;;19.51;nan;99617.03;4961435;28;19946;-74
2022/06/06 03:20:46;;;;;;;;;;;;;;;19.37;nan;99625.16;4961694;28;19918;-74
2022/06/06 03:21:41;;;;;;;;;;;;;;;19.26;nan;99623.06;4964105;28;20691;-75
2022/06/06 03:24:39;;;;;;;;;;;;;;;19.26;nan;99617.69;4961120;28;20442;-74
2022/06/06 03:27:34;;;;;;;;;;;;;;;19.30;nan;99616.28;4995309;28;20359;-75
2022/06/06 03:30:03;;;;;;;;;;;;;;;19.39;nan;99610.56;4979683;28;19972;-74
2022/06/06 03:32:32;;;;;;;;;;;;;;;19.48;nan;99603.22;4964091;28;19958;-75
2022/06/06 03:35:00;;;;;;;;;;;;;;;19.53;nan;99600.78;4960884;28;19922;-75
2022/06/06 03:37:31;;;;;;;;;;;;;;;19.59;nan;99606.16;4961688;28;19919;-75
2022/06/06 03:39:59;;;;;;;;;;;;;;;19.61;nan;99608.66;4960996;28;19922;-74
2022/06/06 03:42:27;;;;;;;;;;;;;;;19.68;nan;99609.47;4963430;28;20266;-75
2022/06/06 03:45:07;;;;;;;;;;;;;;;19.74;nan;99602.50;4961587;28;19918;-75
2022/06/06 03:47:42;;;;;;;;;;;;;;;19.47;nan;99606.94;4976432;28;19922;-74
2022/06/06 03:50:08;;;;;;;;;;;;;;;19.51;nan;99603.66;4963560;28;19926;-75
2022/06/06 03:52:52;;;;;;;;;;;;;;;19.51;nan;99613.53;4963826;28;19918;-74
2022/06/06 03:55:32;;;;;;;;;;;;;;;19.30;nan;99614.44;4961991;28;19937;-74
2022/06/06 03:57:58;;;;;;;;;;;;;;;19.35;nan;99611.97;4959884;28;21078;-74
2022/06/06 04:00:24;;;;;;;;;;;;;;;19.41;nan;99613.03;4962934;28;19922;-74
2022/06/06 04:02:50;;;;;;;;;;;;;;;19.49;nan;99616.41;4960974;28;20397;-76
2022/06/06 04:05:18;;;;;;;;;;;;;;;19.50;nan;99618.06;4961550;28;20026;-74
2022/06/06 04:07:43;;;;;;;;;;;;;;;19.51;nan;99609.00;4962853;28;19965;-74
2022/06/06 04:10:10;;;;;;;;;;;;;;;19.49;nan;99610.25;4960444;28;19922;-74
2022/06/06 04:12:41;;;;;;;;;;;;;;;19.39;nan;99604.38;4963689;28;19929;-74
2022/06/06 04:15:06;;;;;;;;;;;;;;;19.41;nan;99605.00;4960497;28;19919;-75
2022/06/06 04:17:37;;;;;;;;;;;;;;;19.39;nan;99609.72;4965558;28;19920;-75
2022/06/06 04:20:06;;;;;;;;;;;;;;;19.42;nan;99609.34;4963474;28;20392;-76
2022/06/06 04:22:44;;;;;;;;;;;;;;;19.44;nan;99618.81;4994826;28;19914;-76
2022/06/06 04:25:22;;;;;;;;;;;;;;;19.43;nan;99619.84;4960434;28;19918;-75
2022/06/06 04:28:05;;;;;;;;;;;;;;;19.52;nan;99615.19;4961636;28;19921;-76
2022/06/06 04:30:31;;;;;;;;;;;;;;;19.63;nan;99614.59;4963477;28;19929;-75
2022/06/06 04:33:00;;;;;;;;;;;;;;;19.74;nan;99613.22;4960821;28;19957;-76
2022/06/06 04:35:25;;;;;;;;;;;;;;;19.83;nan;99614.69;4962692;28;20323;-75
2022/06/06 04:37:59;;;;;;;;;;;;;;;19.90;nan;99612.88;4961376;28;19996;-75
2022/06/06 04:40:43;;;;;;;;;;;;;;;19.94;nan;99611.44;4962133;28;20430;-76
2022/06/06 04:43:14;;;;;;;;;;;;;;;19.88;nan;99615.75;4960427;28;19921;-76
2022/06/06 04:45:56;;;;;;;;;;;;;;;19.79;nan;99622.28;4963351;28;20370;-76
2022/06/06 04:48:22;;;;;;;;;;;;;;;19.82;nan;99621.06;4963898;28;19970;-75
2022/06/06 04:50:47;;;;;;;;;;;;;;;19.92;nan;99624.19;4961904;28;19969;-77
2022/06/06 04:53:15;;;;;;;;;;;;;;;19.96;nan;99618.25;4960845;28;20363;-77
2022/06/06 04:55:41;;;;;;;;;;;;;;;19.87;nan;99619.44;4961367;28;19922;-77
2022/06/06 04:58:08;;;;;;;;;;;;;;;19.87;nan;99624.81;4961689;28;19934;-76
2022/06/06 05:00:34;;;;;;;;;;;;;;;20.01;nan;99621.16;4959029;28;20009;-77
2022/06/06 05:03:00;;;;;;;;;;;;;;;20.18;nan;99624.28;4962700;28;19922;-77
2022/06/06 05:05:29;;;;;;;;;;;;;;;20.33;nan;99624.94;4960596;28;19992;-77
2022/06/06 05:08:12;;;;;;;;;;;;;;;20.51;nan;99632.38;4965026;28;19925;-77
2022/06/06 05:10:44;;;;;;;;;;;;;;;20.68;nan;99633.63;4974848;28;20739;-78
2022/06/06 05:13:28;;;;;;;;;;;;;;;20.82;nan;99635.28;4962846;28;20362;-74
2022/06/06 05:15:56;;;;;;;;;;;;;;;20.94;nan;99637.34;4962067;28;20330;-75
2022/06/06 05:18:21;;;;;;;;;;;;;;;21.06;nan;99641.06;4964232;28;20056;-77
2022/06/06 05:20:46;;;;;;;;;;;;;;;20.94;nan;99648.09;4962415;28;20004;-76
2022/06/06 05:23:31;;;;;;;;;;;;;;;21.01;nan;99635.50;4961056;28;19969;-76
2022/06/06 05:26:11;;;;;;;;;;;;;;;21.05;nan;99639.41;4960183;28;20355;-77
2022/06/06 05:29:00;;;;;;;;;;;;;;;21.01;nan;99649.75;4961905;28;19918;-78
2022/06/06 05:31:41;;;;;;;;;;;;;;;20.94;nan;99651.59;4962168;28;19918;-77
2022/06/06 05:34:12;;;;;;;;;;;;;;;21.04;nan;99638.56;4959534;28;19918;-76
2022/06/06 05:36:40;;;;;;;;;;;;;;;21.12;nan;99642.91;4963083;28;19918;-75
2022/06/06 05:39:08;;;;;;;;;;;;;;;21.20;nan;99648.09;4962919;28;19944;-75
2022/06/06 05:41:48;;;;;;;;;;;;;;;21.29;nan;99646.84;4963263;28;20375;-75
2022/06/06 05:44:19;;;;;;;;;;;;;;;21.38;nan;99647.44;4965360;28;19918;-76
2022/06/06 05:46:56;;;;;;;;;;;;;;;21.39;nan;99649.91;4963250;28;20114;-75
2022/06/06 05:49:36;;;;;;;;;;;;;;;21.52;nan;99652.56;4966912;28;20371;-75
2022/06/06 05:52:22;;;;;;;;;;;;;;;21.40;nan;99648.88;4966119;28;19980;-76
2022/06/06 05:55:06;;;;;;;;;;;;;;;21.22;nan;99644.16;4967488;28;20282;-77
2022/06/06 05:57:41;;;;;;;;;;;;;;;21.29;nan;99646.84;4965990;28;19918;-74
2022/06/06 06:00:10;;;;;;;;;;;;;;;21.24;nan;99649.31;4966497;28;19922;-76
2022/06/06 06:02:39;;;;;;;;;;;;;;;21.18;nan;99656.34;4961530;28;19918;-77
2022/06/06 06:05:16;;;;;;;;;;;;;;;21.23;nan;99658.41;4965460;28;19968;-76
2022/06/06 06:07:41;;;;;;;;;;;;;;;21.31;nan;99668.09;4962884;28;19918;-76
2022/06/06 06:10:09;;;;;;;;;;;;;;;21.35;nan;99667.47;4965584;28;19925;-77
2022/06/06 06:12:36;;;;;;;;;;;;;;;21.42;nan;99668.28;4962304;28;19958;-76
2022/06/06 06:15:18;;;;;;;;;;;;;;;21.33;nan;99664.16;4980008;28;19949;-76
2022/06/06 06:17:44;;;;;;;;;;;;;;;21.48;nan;99667.44;4964814;28;19918;-76
2022/06/06 06:20:20;;;;;;;;;;;;;;;21.51;nan;99660.81;4962115;28;19918;-76
2022/06/06 06:22:47;;;;;;;;;;;;;;;21.67;nan;99662.22;4964651;28;20316;-76
2022/06/06 06:25:14;;;;;;;;;;;;;;;21.84;nan;99660.72;4962852;28;20400;-76
2022/06/06 06:27:41;;;;;;;;;;;;;;;21.97;nan;99660.69;4965077;28;19940;-76
2022/06/06 06:30:07;;;;;;;;;;;;;;;21.96;nan;99662.56;4961722;28;19918;-76
2022/06/06 06:32:58;;;;;;;;;;;;;;;22.09;nan;99664.34;4980111;28;19925;-76
2022/06/06 06:35:47;;;;;;;;;;;;;;;22.20;nan;99665.53;4963787;28;20016;-76
2022/06/06 06:38:22;;;;;;;;;;;;;;;22.16;nan;99669.69;4962510;28;19925;-76
2022/06/06 06:41:10;;;;;;;;;;;;;;;22.27;nan;99660.94;4963838;28;19918;-73
2022/06/06 06:43:35;;;;;;;;;;;;;;;22.43;nan;99666.66;4965391;28;19925;-74
2022/06/06 06:46:05;;;;;;;;;;;;;;;22.58;nan;99665.50;4961788;28;19922;-76
2022/06/06 06:48:31;;;;;;;;;;;;;;;22.71;nan;99655.47;4966536;28;19918;-74
2022/06/06 06:51:04;;;;;;;;;;;;;;;22.76;nan;99662.91;4961472;28;19922;-77
2022/06/06 06:53:39;;;;;;;;;;;;;;;22.68;nan;99665.88;4963703;28;19945;-77
2022/06/06 06:56:05;;;;;;;;;;;;;;;22.81;nan;99668.47;4961638;28;19926;-75
2022/06/06 06:58:31;;;;;;;;;;;;;;;22.92;nan;99659.69;4962770;28;19969;-77
2022/06/06 07:00:56;;;;;;;;;;;;;;;23.03;nan;99667.03;4961072;28;20244;-78
2022/06/06 07:09:10;;;;;;;;;;;;;;;23.33;nan;99663.69;4964369;28;20016;-75
2022/06/06 07:11:36;;;;;;;;;;;;;;;23.35;nan;99658.88;4962247;28;19926;-77
2022/06/06 07:14:01;;;;;;;;;;;;;;;23.40;nan;99661.72;4961320;28;19919;-78
2022/06/06 07:16:28;;;;;;;;;;;;;;;23.47;nan;99667.88;4963870;28;19982;-78
2022/06/06 07:19:05;;;;;;;;;;;;;;;23.52;nan;99668.03;4964131;28;19949;-77
2022/06/06 07:21:32;;;;;;;;;;;;;;;23.61;nan;99674.78;4966679;28;19977;-77
2022/06/06 07:23:59;;;;;;;;;;;;;;;23.68;nan;99665.56;4964058;28;20354;-76
2022/06/06 07:26:24;;;;;;;;;;;;;;;23.76;nan;99677.09;4963550;28;20334;-78
2022/06/06 07:28:50;;;;;;;;;;;;;;;23.82;nan;99668.13;4959669;28;19918;-78
2022/06/06 07:31:40;;;;;;;;;;;;;;;23.82;nan;99673.50;4963292;28;20009;-78
2022/06/06 07:34:23;;;;;;;;;;;;;;;23.77;nan;99663.41;4961860;28;20370;-78
2022/06/06 07:37:08;;;;;;;;;;;;;;;23.70;nan;99662.66;4963035;28;19984;-83
2022/06/06 07:39:54;;;;;;;;;;;;;;;23.68;nan;99664.75;4961624;28;19925;-79
2022/06/06 07:42:26;;;;;;;;;;;;;;;23.73;nan;99661.41;4962827;28;19925;-81
2022/06/06 07:44:58;;;;;;;;;;;;;;;23.79;nan;99661.31;4960845;28;20058;-77
2022/06/06 07:47:42;;;;;;;;;;;;;;;23.82;nan;99668.94;4961472;28;19932;-78
2022/06/06 07:50:13;;;;;;;;;;;;;;;23.84;nan;99668.72;4962317;28;20377;-78
2022/06/06 07:52:38;;;;;;;;;;;;;;;23.80;nan;99673.72;4961718;28;19918;-82
2022/06/06 07:55:16;;;;;;;;;;;;;;;23.86;nan;99672.81;4962084;28;20324;-80
2022/06/06 07:58:04;;;;;;;;;;;;;;;23.93;nan;99678.97;4962782;28;19926;-79
2022/06/06 08:00:31;;;;;;;;;;;;;;;24.02;nan;99682.19;4960033;28;19926;-81
2022/06/06 08:02:56;;;;;;;;;;;;;;;24.10;nan;99673.75;4961909;28;19918;-80
2022/06/06 08:05:21;;;;;;;;;;;;;;;24.16;nan;99678.25;4962541;28;19925;-81
2022/06/06 08:07:53;;;;;;;;;;;;;;;24.21;nan;99675.72;4975091;28;19918;-80
2022/06/06 08:10:18;;;;;;;;;;;;;;;24.28;nan;99678.31;4958905;28;19948;-81
2022/06/06 08:13:09;;;;;;;;;;;;;;;24.32;nan;99680.38;4960845;28;19918;-84
2022/06/06 08:15:45;;;;;;;;;;;;;;;24.25;nan;99676.09;4960713;28;20625;-81
2022/06/06 08:18:11;;;;;;;;;;;;;;;24.23;nan;99673.63;4964323;28;19921;-82
2022/06/06 08:20:47;;;;;;;;;;;;;;;24.28;nan;99665.66;4961446;28;19922;-81
2022/06/06 08:23:13;;;;;;;;;;;;;;;24.39;nan;99661.34;4963862;28;20033;-81
2022/06/06 08:25:40;;;;;;;;;;;;;;;24.42;nan;99677.09;4961335;28;19922;-84
2022/06/06 08:28:06;;;;;;;;;;;;;;;24.42;nan;99666.31;4961490;28;19980;-82
2022/06/06 08:30:33;;;;;;;;;;;;;;;24.44;nan;99675.00;4961719;28;19918;-86
2022/06/06 08:32:58;;;;;;;;;;;;;;;24.48;nan;99668.09;4960559;28;19926;-83
2022/06/06 08:35:27;;;;;;;;;;;;;;;24.53;nan;99672.78;4959707;28;19940;-86
2022/06/06 08:37:52;;;;;;;;;;;;;;;24.55;nan;99676.91;4961858;28;20283;-84
2022/06/06 08:40:36;;;;;;;;;;;;;;;24.55;nan;99671.53;4962838;28;19926;-86
2022/06/06 08:43:04;;;;;;;;;;;;;;;24.61;nan;99676.00;4960296;28;20362;-85
2022/06/06 08:45:49;;;;;;;;;;;;;;;24.68;nan;99674.00;4961245;28;20706;-88
2022/06/06 08:48:43;;;;;;;;;;;;;;;24.77;nan;99671.78;4960135;28;19914;-82
2022/06/06 08:51:18;;;;;;;;;;;;;;;24.84;nan;99669.81;4970350;28;20383;-86
2022/06/06 08:53:44;;;;;;;;;;;;;;;24.86;nan;99679.31;4961303;28;20022;-85
2022/06/06 08:56:31;;;;;;;;;;;;;;;24.90;nan;99673.50;4960457;28;19922;-85
2022/06/06 08:59:15;;;;;;;;;;;;;;;24.97;nan;99668.81;4962269;28;20052;-82
2022/06/06 09:01:59;;;;;;;;;;;;;;;25.07;nan;99669.06;4962009;28;20381;-86
2022/06/06 09:04:27;;;;;;;;;;;;;;;25.12;nan;99671.88;4964360;28;20009;-86
2022/06/06 09:07:08;;;;;;;;;;;;;;;25.15;nan;99663.31;4965250;28;19919;-83
2022/06/06 09:09:39;;;;;;;;;;;;;;;25.14;nan;99662.50;4983723;28;19989;-83
2022/06/06 09:12:11;;;;;;;;;;;;;;;25.20;nan;99658.03;4970892;28;19922;-84
2022/06/06 09:14:45;;;;;;;;;;;;;;;25.25;nan;99660.84;4977588;28;19945;-81
2022/06/06 09:17:31;;;;;;;;;;;;;;;25.34;nan;99658.59;4976929;28;19929;-81
2022/06/06 09:20:15;;;;;;;;;;;;;;;25.41;nan;99654.72;4977099;28;19985;-82
2022/06/06 09:22:49;;;;;;;;;;;;;;;25.44;nan;99656.13;4964504;28;20298;-82
2022/06/06 09:25:23;;;;;;;;;;;;;;;25.47;nan;99648.38;4967048;28;19964;-83
2022/06/06 09:28:09;;;;;;;;;;;;;;;25.53;nan;99647.41;4964512;28;20370;-81
2022/06/06 09:30:53;;;;;;;;;;;;;;;25.55;nan;99650.72;4968523;28;19941;-82
2022/06/06 09:33:45;;;;;;;;;;;;;;;25.56;nan;99652.38;4967465;28;19929;-82
2022/06/06 09:36:25;;;;;;;;;;;;;;;25.59;nan;99657.31;4968756;28;19925;-82
2022/06/06 09:39:00;;;;;;;;;;;;;;;25.66;nan;99649.91;4944870;29;20454;-82
2022/06/06 09:41:31;;;;;;;;;;;;;;;25.65;nan;99656.34;4945337;29;20330;-82
2022/06/06 09:44:02;;;;;;;;;;;;;;;25.69;nan;99646.69;4946471;28;19967;-84
2022/06/06 09:46:43;;;;;;;;;;;;;;;25.82;nan;99650.19;4947100;28;20022;-83
2022/06/06 09:49:26;;;;;;;;;;;;;;;25.92;nan;99650.44;4948071;28;19974;-82
2022/06/06 09:51:58;;;;;;;;;;;;;;;25.99;nan;99649.19;4943633;29;19918;-83
2022/06/06 10:00:17;;;;;;;;;;;;;;;26.17;nan;99653.59;4949054;29;20446;-81
2022/06/06 10:02:54;;;;;;;;;;;;;;;26.15;nan;99649.50;4942938;28;19919;-81
2022/06/06 10:05:32;;;;;;;;;;;;;;;26.15;nan;99655.75;4944644;28;20602;-81
2022/06/06 10:08:28;;;;;;;;;;;;;;;26.19;nan;99650.66;4945256;28;19919;-81
2022/06/06 10:10:54;;;;;;;;;;;;;;;26.29;nan;99650.88;4942395;29;19919;-82
2022/06/06 10:13:39;;;;;;;;;;;;;;;26.30;nan;99642.53;4946504;28;19974;-82
2022/06/06 10:16:33;;;;;;;;;;;;;;;26.35;nan;99650.72;4942506;28;19925;-81
2022/06/06 10:19:01;;;;;;;;;;;;;;;26.41;nan;99647.06;4957121;28;20332;-84
2022/06/06 10:21:45;;;;;;;;;;;;;;;26.43;nan;99642.22;4945787;29;19925;-83
2022/06/06 10:24:22;;;;;;;;;;;;;;;26.52;nan;99639.09;4942919;28;20009;-81
2022/06/06 10:26:48;;;;;;;;;;;;;;;26.57;nan;99647.34;4945052;28;19924;-82
2022/06/06 10:29:19;;;;;;;;;;;;;;;26.58;nan;99646.25;4943662;29;19918;-75
2022/06/06 10:31:44;;;;;;;;;;;;;;;26.56;nan;99651.09;4959808;28;19918;-75
2022/06/06 10:34:12;;;;;;;;;;;;;;;26.54;nan;99647.81;4963087;28;19925;-76
2022/06/06 10:36:40;;;;;;;;;;;;;;;26.58;nan;99643.53;4947190;29;20065;-75
2022/06/06 10:39:21;;;;;;;;;;;;;;;26.68;nan;99643.72;4961569;28;20445;-75
2022/06/06 10:42:00;;;;;;;;;;;;;;;26.70;nan;99647.00;4962015;28;19918;-75
2022/06/06 10:44:34;;;;;;;;;;;;;;;26.78;nan;99633.06;4963198;28;20009;-76
2022/06/06 10:47:12;;;;;;;;;;;;;;;26.82;nan;99637.72;4964448;28;20056;-76
2022/06/06 10:49:55;;;;;;;;;;;;;;;26.86;nan;99629.97;4964966;28;20371;-73
2022/06/06 10:52:30;;;;;;;;;;;;;;;26.90;nan;99636.53;4980672;28;19972;-74
2022/06/06 10:54:55;;;;;;;;;;;;;;;27.01;nan;99638.34;4963550;28;19922;-74
2022/06/06 10:57:24;;;;;;;;;;;;;;;27.08;nan;99639.00;4963076;28;19984;-74
2022/06/06 10:59:49;;;;;;;;;;;;;;;27.17;nan;99632.06;4962734;28;19981;-73
2022/06/06 11:02:14;;;;;;;;;;;;;;;27.18;nan;99632.91;4978881;28;19922;-76
2022/06/06 11:04:48;;;;;;;;;;;;;;;27.17;nan;99626.66;4961552;28;19926;-74
2022/06/06 11:07:52;;;;;;;;;;;;;;;27.25;nan;99628.94;4964325;28;20290;-76
2022/06/06 11:10:25;;;;;;;;;;;;;;;27.29;nan;99616.53;4999948;28;19963;-74
2022/06/06 11:13:13;;;;;;;;;;;;;;;27.30;nan;99617.34;4999243;28;20040;-76
2022/06/06 11:15:41;;;;;;;;;;;;;;;27.41;nan;99615.59;4987775;28;19921;-74
2022/06/06 11:18:28;;;;;;;;;;;;;;;27.47;nan;99614.59;5000342;28;20016;-74
2022/06/06 11:21:06;;;;;;;;;;;;;;;27.52;nan;99623.63;4998312;28;19959;-74
2022/06/06 11:23:42;;;;;;;;;;;;;;;27.58;nan;99617.22;4998346;28;19922;-74
2022/06/06 11:26:23;;;;;;;;;;;;;;;27.52;nan;99606.56;4997631;28;19922;-74
2022/06/06 11:29:23;;;;;;;;;;;;;;;27.46;nan;99602.94;4996402;28;20310;-74
2022/06/06 11:32:04;;;;;;;;;;;;;;;27.60;nan;99598.00;4921278;29;19980;-76
2022/06/06 11:34:30;;;;;;;;;;;;;;;27.68;nan;99606.53;4918852;29;19934;-74
2022/06/06 11:37:01;;;;;;;;;;;;;;;27.83;nan;99592.31;4921672;29;20434;-76
2022/06/06 11:39:45;;;;;;;;;;;;;;;27.91;nan;99594.56;4921116;29;19925;-74
2022/06/06 11:42:16;;;;;;;;;;;;;;;27.98;nan;99588.94;4901123;29;19919;-78
2022/06/06 11:44:44;;;;;;;;;;;;;;;28.04;nan;99593.31;4903908;29;20046;-74
2022/06/06 11:47:29;;;;;;;;;;;;;;;28.20;nan;99591.63;4902375;29;19919;-74
2022/06/06 11:50:18;;;;;;;;;;;;;;;28.25;nan;99583.53;4901816;29;20423;-74
2022/06/06 11:52:56;;;;;;;;;;;;;;;28.28;nan;99583.00;4901744;29;20280;-74
2022/06/06 11:55:36;;;;;;;;;;;;;;;28.20;nan;99575.34;4903060;29;19930;-73
2022/06/06 11:58:25;;;;;;;;;;;;;;;28.25;nan;99562.66;4903626;29;20034;-74
2022/06/06 12:00:56;;;;;;;;;;;;;;;28.38;nan;99561.41;4901307;29;19974;-73
2022/06/06 12:03:30;;;;;;;;;;;;;;;28.50;nan;99556.63;4902558;29;19919;-73
2022/06/06 12:06:00;;;;;;;;;;;;;;;28.62;nan;99551.84;4934536;28;19957;-74
2022/06/06 12:08:35;;;;;;;;;;;;;;;28.84;nan;99555.28;4962563;28;19961;-74
2022/06/06 12:11:10;;;;;;;;;;;;;;;28.85;nan;99546.06;4960499;28;19926;-74
2022/06/06 12:13:58;;;;;;;;;;;;;;;28.95;nan;99545.28;4963439;28;19925;-75
2022/06/06 12:16:31;;;;;;;;;;;;;;;29.11;nan;99527.16;4961909;28;20351;-76
2022/06/06 12:19:03;;;;;;;;;;;;;;;29.40;nan;99528.41;4963095;28;19918;-76
2022/06/06 12:21:37;;;;;;;;;;;;;;;29.52;nan;99529.00;4962554;28;19925;-76
2022/06/06 12:24:14;;;;;;;;;;;;;;;29.45;nan;99528.44;4960298;28;20766;-75
2022/06/06 12:26:58;;;;;;;;;;;;;;;29.26;nan;99524.53;4963498;28;20002;-75
2022/06/06 12:29:42;;;;;;;;;;;;;;;29.21;nan;99528.06;4961828;28;19932;-75
2022/06/06 12:32:30;;;;;;;;;;;;;;;29.54;nan;99521.41;4959735;28;20017;-75
2022/06/06 12:35:03;;;;;;;;;;;;;;;29.78;nan;99518.19;4963020;28;19918;-75
2022/06/06 12:37:35;;;;;;;;;;;;;;;29.91;nan;99504.09;4962476;28;19918;-76
2022/06/06 12:40:12;;;;;;;;;;;;;;;30.55;nan;99509.03;4959092;28;20894;-75
2022/06/06 12:42:43;;;;;;;;;;;;;;;31.18;nan;99502.09;4963343;28;19972;-76
2022/06/06 12:45:28;;;;;;;;;;;;;;;31.79;nan;99504.53;4958413;28;19926;-75
2022/06/06 12:48:12;;;;;;;;;;;;;;;32.40;nan;99494.00;4962400;28;19918;-74
2022/06/06 12:50:56;;;;;;;;;;;;;;;32.95;nan;99491.78;4959787;28;20327;-75
2022/06/06 12:53:40;;;;;;;;;;;;;;;33.26;nan;99487.63;4961590;28;19922;-75
2022/06/06 12:56:24;;;;;;;;;;;;;;;33.67;nan;99487.88;4959682;28;19922;-75
2022/06/06 12:58:50;;;;;;;;;;;;;;;34.04;nan;99479.66;4961168;28;19919;-74
2022/06/06 13:04:29;;;;;;;;;;;;;;;33.62;nan;99461.41;4962365;28;19918;-75
2022/06/06 13:07:08;;;;;;;;;;;;;;;33.78;nan;99463.94;4978287;28;20015;-75
2022/06/06 13:09:33;;;;;;;;;;;;;;;34.38;nan;99459.41;4963198;28;19973;-76
2022/06/06 13:12:02;;;;;;;;;;;;;;;34.74;nan;99462.31;4975103;28;19930;-76
2022/06/06 13:14:40;;;;;;;;;;;;;;;34.57;nan;99462.88;4962257;28;19925;-75
2022/06/06 13:17:25;;;;;;;;;;;;;;;34.96;nan;99462.41;4959790;28;19922;-75
2022/06/06 13:20:11;;;;;;;;;;;;;;;35.74;nan;99450.31;4960823;28;20267;-75
2022/06/06 13:22:57;;;;;;;;;;;;;;;36.49;nan;99455.03;4959592;28;19961;-75
2022/06/06 13:25:25;;;;;;;;;;;;;;;37.23;nan;99455.19;4979681;28;19925;-72
2022/06/06 13:27:55;;;;;;;;;;;;;;;37.29;nan;99451.13;4960954;28;19922;-75
2022/06/06 13:30:23;;;;;;;;;;;;;;;36.50;nan;99449.22;4961350;28;20263;-75
2022/06/06 13:33:05;;;;;;;;;;;;;;;37.10;nan;99450.63;4960160;28;19918;-74
2022/06/06 13:35:38;;;;;;;;;;;;;;;37.85;nan;99454.91;4958350;28;20015;-74
2022/06/06 13:38:06;;;;;;;;;;;;;;;37.03;nan;99439.25;4962173;28;20322;-74
2022/06/06 13:40:41;;;;;;;;;;;;;;;36.13;nan;99444.94;4959678;28;19997;-74
2022/06/06 13:43:07;;;;;;;;;;;;;;;34.67;nan;99443.50;4962708;28;20016;-74
2022/06/06 13:45:48;;;;;;;;;;;;;;;33.32;nan;99442.69;4959692;28;20383;-75
2022/06/06 13:48:30;;;;;;;;;;;;;;;32.70;nan;99435.50;4961805;28;19914;-74
2022/06/06 13:51:01;;;;;;;;;;;;;;;32.37;nan;99431.75;4958711;28;19924;-74
2022/06/06 13:53:48;;;;;;;;;;;;;;;33.14;nan;99424.31;4961498;28;20327;-74
2022/06/06 13:56:27;;;;;;;;;;;;;;;34.71;nan;99422.63;4959844;28;20355;-73
2022/06/06 13:58:52;;;;;;;;;;;;;;;36.03;nan;99422.44;4960570;28;19997;-75
2022/06/06 14:01:18;;;;;;;;;;;;;;;36.27;nan;99420.19;4963769;28;19958;-74